createdAt,value
2019-05-18T06:20:09.151Z,94.50
2019-05-18T06:22:40.908Z,94.00
2019-05-18T06:25:12.716Z,93.50
2019-05-18T06:50:30.904Z,92.90
2019-05-18T06:53:02.759Z,93.00
2019-05-18T06:55:35.226Z,91.80
2019-05-18T06:58:07.474Z,91.10
2019-05-18T07:00:39.104Z,90.60
2019-05-18T07:03:10.513Z,90.50
2019-05-18T07:05:42.386Z,90.00
2019-05-18T07:08:15.097Z,90.00
2019-05-18T07:10:46.444Z,89.40
2019-05-18T07:13:17.964Z,89.40
2019-05-18T07:15:50.837Z,88.80
2019-05-18T07:18:22.424Z,88.50
2019-05-18T07:20:54.215Z,89.10
2019-05-18T07:23:25.716Z,89.30
2019-05-18T07:25:57.196Z,89.60
2019-05-18T07:28:28.729Z,89.40
2019-05-18T07:31:00.291Z,89.00
2019-05-18T07:33:32.154Z,88.70
2019-05-18T07:36:04.531Z,88.30
2019-05-18T07:38:35.825Z,88.10
2019-05-18T07:41:07.140Z,88.00
2019-05-18T07:43:38.483Z,87.70
2019-05-18T07:46:09.971Z,87.90
2019-05-18T07:48:41.469Z,88.20
2019-05-18T07:51:13.078Z,88.50
2019-05-18T07:53:45.917Z,89.00
2019-05-18T07:56:17.558Z,89.50
2019-05-18T07:58:49.938Z,89.70
2019-05-18T08:01:21.335Z,90.00
2019-05-18T08:03:52.934Z,90.00
2019-05-18T08:06:24.547Z,90.10
2019-05-18T08:08:56.483Z,89.60
2019-05-18T08:11:28.209Z,88.80
2019-05-18T08:13:59.502Z,88.20
2019-05-18T08:16:31.359Z,88.00
2019-05-18T08:19:03.027Z,88.50
2019-05-18T08:21:34.765Z,88.70
2019-05-18T08:24:06.533Z,88.90
2019-05-18T08:26:37.965Z,89.10
2019-05-18T08:29:09.301Z,88.90
2019-05-18T08:31:41.011Z,88.60
2019-05-18T08:34:12.826Z,88.00
2019-05-18T08:36:44.140Z,87.80
2019-05-18T08:39:15.802Z,87.40
2019-05-18T08:41:49.349Z,86.70
2019-05-18T08:44:21.748Z,85.80
2019-05-18T08:46:53.248Z,85.10
2019-05-18T08:49:24.748Z,84.30
2019-05-18T08:52:07.498Z,82.80
2019-05-18T08:54:29.299Z,81.20
2019-05-18T08:57:01.051Z,80.00
2019-05-18T08:59:32.878Z,78.70
2019-05-18T09:02:05.529Z,77.70
2019-05-18T09:04:36.842Z,77.40
2019-05-18T09:07:09.274Z,77.10
2019-05-18T09:09:40.746Z,76.10
2019-05-18T09:12:13.262Z,75.50
2019-05-18T09:14:44.958Z,74.80
2019-05-18T09:17:16.573Z,74.10
2019-05-18T09:19:48.555Z,72.90
2019-05-18T09:22:23.248Z,72.20
2019-05-18T09:24:53.195Z,71.20
2019-05-18T09:27:25.704Z,70.60
2019-05-18T09:29:57.197Z,70.50
2019-05-18T09:32:28.517Z,70.70
2019-05-18T09:35:00.423Z,71.60
2019-05-18T09:37:32.253Z,70.80
2019-05-18T09:40:04.330Z,70.20
2019-05-18T09:42:35.769Z,70.00
2019-05-18T09:45:09.035Z,69.70
2019-05-18T09:47:40.681Z,69.20
2019-05-18T09:50:12.812Z,67.50
2019-05-18T09:52:45.967Z,67.40
2019-05-18T09:55:18.401Z,66.50
2019-05-18T09:57:50.066Z,64.70
2019-05-18T10:00:21.747Z,65.40
2019-05-18T10:02:53.121Z,63.90
2019-05-18T10:08:44.710Z,60.90
2019-05-18T10:11:16.070Z,61.70
2019-05-18T10:13:47.957Z,61.30
2019-05-18T10:16:19.216Z,61.10
2019-05-18T10:18:51.701Z,60.80
2019-05-18T10:21:23.022Z,60.80
2019-05-18T10:23:54.447Z,59.90
2019-05-18T10:26:25.899Z,60.00
2019-05-18T10:28:57.759Z,58.20
2019-05-18T10:31:29.274Z,58.40
2019-05-18T10:34:01.029Z,57.80
2019-05-18T10:36:32.417Z,56.80
2019-05-18T10:39:04.504Z,57.00
2019-05-18T10:41:35.938Z,55.90
2019-05-18T10:44:07.260Z,55.20
2019-05-18T10:49:50.389Z,55.60
2019-05-18T11:13:07.657Z,57.70
2019-05-18T11:15:38.963Z,58.30
2019-05-18T11:18:10.384Z,58.50
2019-05-18T11:20:42.125Z,59.00
2019-05-18T11:23:14.080Z,59.40
2019-05-18T11:25:45.561Z,58.50
2019-05-18T11:28:17.283Z,58.40
2019-05-18T11:30:49.040Z,58.80
2019-05-18T11:33:20.316Z,58.00
2019-05-18T11:35:51.929Z,58.70
2019-05-18T11:38:23.261Z,58.20
2019-05-18T11:40:54.574Z,56.80
2019-05-18T11:43:26.369Z,57.00
2019-05-18T11:45:58.863Z,57.30
2019-05-18T11:48:31.035Z,57.30
2019-05-18T11:51:02.519Z,57.10
2019-05-18T11:53:34.216Z,57.40
2019-05-18T11:56:06.114Z,57.20
2019-05-18T11:58:38.075Z,57.30
2019-05-18T12:01:10.210Z,57.70
2019-05-18T12:03:41.647Z,57.20
2019-05-18T12:06:13.094Z,57.20
2019-05-18T12:08:44.969Z,56.90
2019-05-18T12:11:16.249Z,56.70
2019-05-18T12:13:47.723Z,56.90
2019-05-18T12:16:18.990Z,56.20
2019-05-18T12:18:50.361Z,57.10
2019-05-18T12:21:21.797Z,56.60
2019-05-18T12:23:53.343Z,56.70
2019-05-18T12:26:24.839Z,57.30
2019-05-18T12:28:56.234Z,57.30
2019-05-18T12:31:29.088Z,57.70
2019-05-18T12:34:00.650Z,57.50
2019-05-18T12:36:33.439Z,58.00
2019-05-18T12:39:06.450Z,58.70
2019-05-18T12:41:38.299Z,59.20
2019-05-18T12:44:09.642Z,59.60
2019-05-18T12:46:41.238Z,59.70
2019-05-18T12:49:12.720Z,60.00
2019-05-18T12:51:44.823Z,60.90
2019-05-18T12:54:28.689Z,61.60
2019-05-18T12:56:49.440Z,62.10
2019-05-18T12:59:21.717Z,62.50
2019-05-18T13:01:53.181Z,63.10
2019-05-18T13:04:24.449Z,63.30
2019-05-18T13:06:56.240Z,63.50
2019-05-18T13:09:27.603Z,63.40
2019-05-18T13:11:59.507Z,63.20
2019-05-18T13:14:31.531Z,63.90
2019-05-18T13:17:03.005Z,63.40
2019-05-18T13:19:34.417Z,63.10
2019-05-18T13:22:05.889Z,63.00
2019-05-18T13:24:45.455Z,63.10
2019-05-18T13:27:10.280Z,63.30
2019-05-18T13:29:43.420Z,63.30
2019-05-18T13:32:14.727Z,63.00
2019-05-18T13:34:46.244Z,61.90
2019-05-18T13:37:26.851Z,61.30
2019-05-18T13:40:06.671Z,60.10
2019-05-18T13:42:38.013Z,59.90
2019-05-18T13:45:10.378Z,59.80
2019-05-18T13:47:42.237Z,60.20
2019-05-18T13:50:14.022Z,60.50
2019-05-18T13:52:45.357Z,60.50
2019-05-18T13:55:16.669Z,60.90
2019-05-18T13:57:48.086Z,61.20
2019-05-18T14:00:20.477Z,61.30
2019-05-18T14:02:52.217Z,61.50
2019-05-18T14:05:23.794Z,61.50
2019-05-18T14:07:55.183Z,61.60
2019-05-18T14:10:26.786Z,61.40
2019-05-18T14:12:58.235Z,61.20
2019-05-18T14:15:29.626Z,61.10
2019-05-18T14:18:01.089Z,60.80
2019-05-18T14:20:32.483Z,60.50
2019-05-18T14:23:03.943Z,60.20
2019-05-18T14:25:35.550Z,60.50
2019-05-18T14:28:07.185Z,60.00
2019-05-18T14:30:38.502Z,59.80
2019-05-18T14:33:10.149Z,59.70
2019-05-18T14:35:41.764Z,59.70
2019-05-18T14:38:13.056Z,59.60
2019-05-18T14:40:44.366Z,59.40
2019-05-18T14:43:15.650Z,59.60
2019-05-18T14:45:49.059Z,59.80
2019-05-18T14:48:20.519Z,60.00
2019-05-18T14:50:51.900Z,60.20
2019-05-18T14:53:23.190Z,60.30
2019-05-18T14:55:54.630Z,60.10
2019-05-18T14:58:27.185Z,60.60
2019-05-18T15:00:58.955Z,60.40
2019-05-18T15:03:30.378Z,60.40
2019-05-18T15:06:01.813Z,60.50
2019-05-18T15:08:33.661Z,60.50
2019-05-18T15:11:05.026Z,60.90
2019-05-18T15:13:36.872Z,60.90
2019-05-18T15:16:08.479Z,61.10
2019-05-18T15:18:40.198Z,61.50
2019-05-18T15:21:11.780Z,61.70
2019-05-18T15:23:43.793Z,62.10
2019-05-18T15:26:15.204Z,62.40
2019-05-18T15:28:46.750Z,62.60
2019-05-18T15:31:18.743Z,62.80
2019-05-18T15:33:50.252Z,62.60
2019-05-18T15:36:21.893Z,62.80
2019-05-18T15:38:53.927Z,63.10
2019-05-18T15:41:25.445Z,63.30
2019-05-18T15:43:57.000Z,63.10
2019-05-18T15:46:28.799Z,63.10
2019-05-18T15:49:00.413Z,62.60
2019-05-18T15:51:32.487Z,62.90
2019-05-18T15:54:04.025Z,63.00
2019-05-18T15:56:35.489Z,62.20
2019-05-18T15:59:07.444Z,62.00
2019-05-18T16:01:39.165Z,61.90
2019-05-18T16:04:10.593Z,62.10
2019-05-18T16:06:42.123Z,62.20
2019-05-18T16:09:13.850Z,62.10
2019-05-18T16:11:45.315Z,62.20
2019-05-18T16:14:16.685Z,62.20
2019-05-18T16:16:48.302Z,62.20
2019-05-18T16:19:19.901Z,62.30
2019-05-18T16:21:52.621Z,62.40
2019-05-18T16:24:28.244Z,62.50
2019-05-18T16:27:01.331Z,62.40
2019-05-18T16:29:33.494Z,62.70
2019-05-18T16:32:06.653Z,62.70
2019-05-18T16:34:39.475Z,62.90
2019-05-18T16:37:10.944Z,63.00
2019-05-18T16:39:43.791Z,63.10
2019-05-18T16:42:15.528Z,63.40
2019-05-18T16:44:48.470Z,63.50
2019-05-18T16:47:19.772Z,63.70
2019-05-18T16:49:51.823Z,63.90
2019-05-18T16:52:23.529Z,64.00
2019-05-18T16:54:56.667Z,64.20
2019-05-18T16:57:28.730Z,64.40
2019-05-18T17:00:00.589Z,64.40
2019-05-18T17:02:32.806Z,64.60
2019-05-18T17:05:04.779Z,64.60
2019-05-18T17:07:37.429Z,65.70
2019-05-18T17:10:09.441Z,64.90
2019-05-18T17:12:40.809Z,64.80
2019-05-18T17:15:18.265Z,64.90
2019-05-18T17:17:49.661Z,65.00
2019-05-18T17:20:21.734Z,65.60
2019-05-18T17:22:53.452Z,65.80
2019-05-18T17:25:25.189Z,66.20
2019-05-18T17:27:56.525Z,66.20
2019-05-18T17:30:28.196Z,66.60
2019-05-18T17:33:00.038Z,66.80
2019-05-18T17:35:32.619Z,67.20
2019-05-18T17:38:04.590Z,67.60
2019-05-18T17:40:36.457Z,67.80
2019-05-18T17:43:08.074Z,68.20
2019-05-18T17:45:39.540Z,68.40
2019-05-18T17:48:11.070Z,68.80
2019-05-18T17:50:42.803Z,69.20
2019-05-18T17:53:15.175Z,69.70
2019-05-18T17:55:46.529Z,70.30
2019-05-18T17:58:18.734Z,70.70
2019-05-18T18:00:50.034Z,71.00
2019-05-18T18:03:22.336Z,71.20
2019-05-18T18:05:53.800Z,71.60
2019-05-18T18:08:25.509Z,72.00
2019-05-18T18:10:56.918Z,72.60
2019-05-18T18:13:28.737Z,73.00
2019-05-18T18:16:00.153Z,73.50
2019-05-18T18:18:34.773Z,74.00
2019-05-18T18:21:05.258Z,74.50
2019-05-18T18:23:37.098Z,75.70
2019-05-18T18:26:08.470Z,75.30
2019-05-18T18:28:39.958Z,75.60
2019-05-18T18:31:12.900Z,76.10
2019-05-18T18:33:44.698Z,76.40
2019-05-18T18:36:16.249Z,77.00
2019-05-18T18:38:47.653Z,77.30
2019-05-18T18:41:19.008Z,77.70
2019-05-18T18:43:53.062Z,78.10
2019-05-18T18:46:24.347Z,78.60
2019-05-18T18:48:55.901Z,79.00
2019-05-18T18:51:27.835Z,79.40
2019-05-18T18:53:59.379Z,80.00
2019-05-18T18:56:31.619Z,80.60
2019-05-18T18:59:03.382Z,80.90
2019-05-18T19:01:35.113Z,81.10
2019-05-18T19:04:07.005Z,81.50
2019-05-18T19:06:40.002Z,81.70
2019-05-18T19:09:12.611Z,81.90
2019-05-18T19:11:43.899Z,82.10
2019-05-18T19:14:15.198Z,82.50
2019-05-18T19:16:46.829Z,83.00
2019-05-18T19:19:18.649Z,83.20
2019-05-18T19:21:50.417Z,83.40
2019-05-18T19:24:21.955Z,83.80
2019-05-18T19:26:53.476Z,84.20
2019-05-18T19:29:24.934Z,84.40
2019-05-18T19:31:57.884Z,84.80
2019-05-18T19:34:31.095Z,84.90
2019-05-18T19:37:04.037Z,85.40
2019-05-18T19:39:35.812Z,85.40
2019-05-18T19:42:07.948Z,85.60
2019-05-18T19:44:40.113Z,85.70
2019-05-18T19:47:11.789Z,85.80
2019-05-18T19:49:43.251Z,85.80
2019-05-18T19:52:14.726Z,85.80
2019-05-18T19:54:46.407Z,85.90
2019-05-18T19:57:18.346Z,85.80
2019-05-18T19:59:49.889Z,85.80
2019-05-18T20:02:21.162Z,85.60
2019-05-18T20:05:06.352Z,85.40
2019-05-18T20:07:25.935Z,85.40
2019-05-18T20:09:57.414Z,85.20
2019-05-18T20:12:30.709Z,85.10
2019-05-18T20:15:02.664Z,85.00
2019-05-18T20:17:36.333Z,85.00
2019-05-18T20:20:09.597Z,84.90
2019-05-18T20:22:41.225Z,84.90
2019-05-18T20:25:13.766Z,85.00
2019-05-18T20:27:46.324Z,85.10
2019-05-18T20:30:17.970Z,85.20
2019-05-18T20:32:49.554Z,85.30
2019-05-18T20:35:21.634Z,85.50
2019-05-18T20:37:53.133Z,85.60
2019-05-18T20:40:24.986Z,85.60
2019-05-18T20:43:02.637Z,85.90
2019-05-18T20:45:34.514Z,86.10
2019-05-18T20:48:06.379Z,86.30
2019-05-18T20:50:39.540Z,86.40
2019-05-18T20:53:11.405Z,86.60
2019-05-18T20:55:43.317Z,87.00
2019-05-18T20:58:14.800Z,87.30
2019-05-18T21:00:47.701Z,87.40
2019-05-18T21:03:19.174Z,87.50
2019-05-18T21:05:51.859Z,87.50
2019-05-18T21:08:23.557Z,87.40
2019-05-18T21:10:55.057Z,87.40
2019-05-18T21:13:26.325Z,87.40
2019-05-18T21:15:57.862Z,87.40
2019-05-18T21:18:29.680Z,87.30
2019-05-18T21:21:01.208Z,87.30
2019-05-18T21:23:33.093Z,87.20
2019-05-18T21:26:04.419Z,87.20
2019-05-18T21:28:36.321Z,87.20
2019-05-18T21:31:07.756Z,87.30
2019-05-18T21:33:39.576Z,87.50
2019-05-18T21:36:11.531Z,87.70
2019-05-18T21:38:43.235Z,87.60
2019-05-18T21:41:15.040Z,87.70
2019-05-18T21:43:46.463Z,87.90
2019-05-18T21:46:18.138Z,88.10
2019-05-18T21:48:50.986Z,88.70
2019-05-18T21:51:22.597Z,88.90
2019-05-18T21:53:54.229Z,89.00
2019-05-18T21:56:25.543Z,89.00
2019-05-18T21:59:10.559Z,88.80
2019-05-18T22:01:31.224Z,88.70
2019-05-18T22:04:02.708Z,88.70
2019-05-18T22:06:35.426Z,88.80
2019-05-18T22:09:07.839Z,88.80
2019-05-18T22:11:39.374Z,89.80
2019-05-18T22:14:10.938Z,88.90
2019-05-18T22:16:42.466Z,89.10
2019-05-18T22:19:15.529Z,89.20
2019-05-18T22:21:47.049Z,89.30
2019-05-18T22:24:19.089Z,89.60
2019-05-18T22:26:50.602Z,90.40
2019-05-18T22:29:21.975Z,90.70
2019-05-18T22:31:53.692Z,91.00
2019-05-18T22:34:25.109Z,91.20
2019-05-18T22:36:56.729Z,91.20
2019-05-18T22:39:28.171Z,91.30
2019-05-18T22:41:59.481Z,91.20
2019-05-18T22:44:31.161Z,91.20
2019-05-18T22:47:02.713Z,91.10
2019-05-18T22:49:34.246Z,91.10
2019-05-18T22:52:05.744Z,91.00
2019-05-18T22:54:37.380Z,91.00
2019-05-18T22:57:09.234Z,91.00
2019-05-18T22:59:40.541Z,91.00
2019-05-18T23:02:12.039Z,90.90
2019-05-18T23:04:44.038Z,90.90
2019-05-18T23:07:15.849Z,90.80
2019-05-18T23:09:47.287Z,90.80
2019-05-18T23:12:18.557Z,90.70
2019-05-18T23:14:50.263Z,90.70
2019-05-18T23:17:22.001Z,90.70
2019-05-18T23:19:53.887Z,90.70
2019-05-18T23:22:25.537Z,90.70
2019-05-18T23:24:57.222Z,90.60
2019-05-18T23:27:28.945Z,90.50
2019-05-18T23:30:00.508Z,90.40
2019-05-18T23:32:33.012Z,90.40
2019-05-18T23:35:04.780Z,90.40
2019-05-18T23:37:36.260Z,90.30
2019-05-18T23:40:09.130Z,90.30
2019-05-18T23:42:40.542Z,90.20
2019-05-18T23:45:12.401Z,90.20
2019-05-18T23:47:44.078Z,90.20
2019-05-18T23:50:15.387Z,90.20
2019-05-18T23:52:47.076Z,90.60
2019-05-18T23:55:18.663Z,90.60
2019-05-18T23:57:50.130Z,90.20
